Data for 08/20/2013

Time Sea-Level Adjusted Pressure Absolute Pressure Temperature Relative Humidity Dew Point   
(mb) (inHg) (mb) (inHg) (C) (F) (%) (C) (F)
00:05 1019 30.09 848 25.04 19.4 66.9 22 -3 26.6
00:10 1019 30.09 848 25.04 19.3 66.7 21 -3.3 26
00:15 1019 30.09 848 25.04 19.1 66.3 22 -3.1 26.4
00:20 1019 30.09 848 25.04 18.9 66.1 22 -3.2 26.2
00:25 1019 30.09 848 25.04 19 66.3 21 -3.4 25.9
00:30 1019 30.09 848 25.04 19 66.3 21 -3.6 25.6
00:35 1019 30.09 848 25.04 19.1 66.4 21 -3.6 25.5
00:40 1019 30.09 848 25.04 19.3 66.8 22 -2.8 26.9
00:45 1019 30.09 848 25.04 19.1 66.4 22 -3.1 26.5
00:50 1019 30.09 848 25.04 18.8 65.8 24 -2.3 27.9
00:55 1019 30.09 848 25.04 18.2 64.8 24 -2.7 27.2
01:00 1019 30.09 848 25.04 18.3 65 24 -2.4 27.7
01:05 1019 30.09 848 25.04 18 64.5 30 0.1 32.3
01:10 1019 30.09 848 25.04 17.7 63.9 28 -1.1 30
01:15 1019 30.09 848 25.04 17.2 63 27 -2 28.5
01:20 1019 30.09 848 25.04 16.8 62.3 28 -1.8 28.7
01:25 1019 30.09 848 25.04 16.5 61.7 30 -1 30.3
01:30 1019 30.09 849 25.07 16 60.8 31 -1.2 29.8
01:35 1019 30.09 848 25.04 15.9 60.6 30 -1.4 29.5
01:40 1019 30.09 848 25.04 16 60.8 28 -2.4 27.6
01:45 1019 30.09 848 25.04 16.9 62.4 26 -2.8 26.9
01:50 1019 30.09 848 25.04 17.2 62.9 26 -2.6 27.3
01:55 1019 30.09 849 25.07 16.8 62.2 29 -1.1 30
02:00 1019 30.09 849 25.07 16.1 60.9 28 -2.4 27.7
02:05 1019 30.09 849 25.07 16.5 61.7 30 -0.8 30.5
02:10 1019 30.09 849 25.07 17 62.6 26 -2.6 27.4
02:15 1019 30.09 849 25.07 16.9 62.4 25 -3.3 26.1
02:20 1019 30.09 849 25.07 16.9 62.4 25 -3.1 26.4
02:25 1019 30.09 849 25.07 16.8 62.2 26 -2.9 26.7
02:30 1019 30.09 849 25.07 16.7 62 26 -2.6 27.3
02:35 1019 30.09 849 25.07 16.2 61.2 27 -2.9 26.8
02:40 1019 30.09 849 25.07 16.3 61.4 27 -2.8 26.9
02:45 1019 30.09 849 25.07 16.2 61.1 27 -2.6 27.4
02:50 1019 30.09 849 25.07 16 60.8 29 -1.9 28.6
02:55 1019 30.09 849 25.07 16.1 61.1 26 -3.2 26.3
03:00 1019 30.09 849 25.07 16.7 62.1 25 -3.6 25.6
03:05 1019 30.09 849 25.07 17 62.7 25 -3.1 26.4
03:10 1019 30.09 849 25.07 16.9 62.5 24 -3.5 25.7
03:15 1019 30.09 849 25.07 17.2 62.9 24 -3.4 25.9
03:20 1019 30.09 849 25.07 17.1 62.8 25 -3.1 26.4
03:25 1019 30.09 849 25.07 17 62.6 24 -3.4 26
03:30 1020 30.12 849 25.07 17.1 62.7 24 -3.4 26
03:35 1020 30.12 849 25.07 17.2 62.9 25 -3.2 26.3
03:40 1020 30.12 849 25.07 17.2 62.9 25 -3.1 26.4
03:45 1020 30.12 849 25.07 17 62.7 25 -3.3 26.1
03:50 1020 30.12 849 25.07 17.1 62.7 24 -3.3 26
03:55 1020 30.12 849 25.07 17.1 62.8 25 -3 26.6
04:00 1020 30.12 849 25.07 17 62.7 26 -2.6 27.3
04:05 1020 30.12 849 25.07 17.2 62.9 24 -3.2 26.3
04:10 1020 30.12 849 25.07 17.2 63 25 -2.7 27.2
04:15 1020 30.12 849 25.07 16.9 62.5 26 -2.7 27.1
04:20 1020 30.12 849 25.07 16.6 61.8 27 -2.4 27.7
04:25 1020 30.12 849 25.07 16 60.8 28 -2.3 27.9
04:30 1020 30.12 849 25.07 15.7 60.2 31 -1.4 29.5
04:35 1020 30.12 849 25.07 14.8 58.7 32 -1.8 28.7
04:40 1020 30.12 849 25.07 15.2 59.4 29 -2.8 27
04:45 1020 30.12 849 25.07 15.7 60.2 28 -2.8 26.9
04:50 1020 30.12 849 25.07 16 60.8 27 -2.7 27.1
04:55 1020 30.12 849 25.07 16.1 60.9 28 -2.4 27.7
05:00 1020 30.12 849 25.07 15.7 60.2 29 -2.3 27.8
05:05 1020 30.12 849 25.07 15.5 59.9 29 -2.4 27.6
05:10 1020 30.12 849 25.07 15.6 60.1 29 -2.3 27.8
05:15 1020 30.12 849 25.07 15.5 60 29 -2.2 28.1
05:20 1020 30.12 849 25.07 15.2 59.3 30 -2.3 27.9
05:25 1020 30.12 849 25.07 15.1 59.2 29 -2.9 26.8
05:30 1020 30.12 849 25.07 15.2 59.3 31 -1.8 28.7
05:35 1020 30.12 849 25.07 14.7 58.5 30 -2.6 27.3
05:40 1020 30.12 849 25.07 15.3 59.5 29 -2.7 27.2
05:45 1020 30.12 849 25.07 15.4 59.8 30 -1.9 28.7
05:50 1020 30.12 849 25.07 15.3 59.6 29 -2.5 27.5
05:55 1020 30.12 849 25.07 15.6 60.1 28 -2.9 26.8
06:00 1020 30.12 849 25.07 16.1 61 27 -2.9 26.7
06:05 1020 30.12 849 25.07 16.1 61 27 -2.6 27.2
06:10 1020 30.12 849 25.07 16 60.9 27 -2.7 27.1
06:15 1020 30.12 849 25.07 16.2 61.1 27 -2.8 26.9
06:20 1020 30.12 849 25.07 16 60.9 28 -2.2 28.1
06:25 1020 30.12 849 25.07 15.7 60.2 30 -1.9 28.5
06:30 1020 30.12 849 25.07 15.5 59.9 29 -2.3 27.8
06:35 1020 30.12 849 25.07 15.5 60 29 -2.1 28.2
06:40 1020 30.12 849 25.07 15.7 60.2 28 -2.5 27.6
06:45 1020 30.12 849 25.07 16.1 61.1 28 -2.1 28.3
06:50 1020 30.12 849 25.07 16.2 61.2 28 -2 28.4
06:55 1020 30.12 849 25.07 16.5 61.7 28 -1.8 28.8
07:00 1020 30.12 850 25.1 16.7 62 28 -1.9 28.5
07:05 1020 30.12 850 25.1 16.8 62.2 29 -1.2 29.9
07:10 1020 30.12 850 25.1 17.1 62.8 32 0.2 32.4
07:15 1020 30.12 850 25.1 17.6 63.6 32 0.6 33.1
07:20 1020 30.12 850 25.1 17.7 63.8 33 1.2 34.2
07:25 1020 30.12 850 25.1 17.9 64.2 33 1.6 34.9
07:30 1020 30.12 850 25.1 18.5 65.3 31 1.1 34
07:35 1021 30.15 850 25.1 18.9 66.1 31 1.6 34.8
07:40 1021 30.15 850 25.1 19.2 66.6 32 2.1 35.9
07:45 1021 30.15 850 25.1 18.7 65.6 33 2.1 35.7
07:50 1021 30.15 850 25.1 18.7 65.7 32 1.9 35.5
07:55 1021 30.15 850 25.1 18.9 66 30 1.3 34.3
08:00 1021 30.15 850 25.1 19 66.2 34 2.8 37.1
08:05 1021 30.15 850 25.1 19.8 67.6 29 1.2 34.2
08:10 1021 30.15 850 25.1 20.3 68.6 26 0.3 32.6
08:15 1021 30.15 850 25.1 20.2 68.4 26 0.5 32.9
08:20 1021 30.15 850 25.1 20.9 69.5 25 0.2 32.3
08:25 1021 30.15 850 25.1 21.4 70.5 26 1.1 34.1
08:30 1021 30.15 850 25.1 21.5 70.8 25 1 33.8
08:35 1021 30.15 850 25.1 21.8 71.3 26 1.5 34.8
08:40 1021 30.15 850 25.1 21.6 70.9 26 1.7 35
08:45 1021 30.15 850 25.1 22.1 71.8 25 1.6 34.9
08:50 1021 30.15 850 25.1 22.6 72.6 25 1.7 35
08:55 1021 30.15 850 25.1 22.5 72.4 23 0.4 32.8
09:00 1021 30.15 850 25.1 22.5 72.4 22 0.1 32.2
09:05 1021 30.15 850 25.1 23 73.4 20 -0.7 30.7
09:10 1021 30.15 850 25.1 23.2 73.7 20 -0.7 30.8
09:15 1021 30.15 850 25.1 23.1 73.7 21 -0.2 31.6
09:20 1021 30.15 850 25.1 23.5 74.2 19 -1 30.2
09:25 1021 30.15 850 25.1 23.5 74.3 20 -0.6 30.9
09:30 1021 30.15 850 25.1 24 75.3 19 -0.8 30.6
09:35 1021 30.15 850 25.1 23.6 74.4 21 0.1 32.2
09:40 1021 30.15 850 25.1 23.8 74.9 20 -0.2 31.6
09:45 1021 30.15 850 25.1 24.1 75.3 19 -0.5 31
09:50 1021 30.15 850 25.1 24.1 75.4 20 -0.4 31.3
09:55 1021 30.15 850 25.1 24.3 75.7 19 -0.7 30.8
10:00 1021 30.15 850 25.1 24.4 75.9 19 -0.7 30.7
10:05 1021 30.15 850 25.1 24.4 76 19 -0.5 31.2
10:10 1021 30.15 850 25.1 24.4 75.9 19 -0.3 31.5
10:15 1021 30.15 850 25.1 24 75.3 19 -0.5 31.1
10:20 1021 30.15 850 25.1 24.1 75.3 20 -0.4 31.4
10:25 1020 30.12 850 25.1 24.5 76.1 19 -0.6 30.9
10:30 1020 30.12 850 25.1 25.5 77.9 18 -0.3 31.4
10:35 1020 30.12 850 25.1 25.3 77.6 17 -0.9 30.3
10:40 1020 30.12 850 25.1 25.2 77.4 17 -1 30.3
10:45 1020 30.12 849 25.07 26 78.7 19 0.7 33.3
10:50 1020 30.12 849 25.07 26.2 79.2 16 -1.1 30.1
10:55 1020 30.12 849 25.07 26.4 79.6 15 -1.7 28.9
11:00 1020 30.12 849 25.07 26.7 80.1 17 -0.1 31.8
11:05 1020 30.12 849 25.07 27.1 80.8 15 -1.2 29.9
11:10 1020 30.12 849 25.07 26.8 80.2 16 -1.3 29.7
11:15 1020 30.12 849 25.07 25.8 78.4 16 -2.1 28.3
11:20 1020 30.12 849 25.07 27 80.6 15 -1.8 28.8
11:25 1020 30.12 849 25.07 27.2 80.9 14 -2 28.3
11:30 1020 30.12 849 25.07 28.7 83.7 14 -1.4 29.6
11:35 1020 30.12 849 25.07 27.9 82.3 14 -1.3 29.6
11:40 1020 30.12 849 25.07 26.8 80.3 15 -1.5 29.4
11:45 1020 30.12 849 25.07 27.5 81.5 14 -1.8 28.7
11:50 1020 30.12 849 25.07 28.2 82.7 14 -1.1 30
11:55 1019 30.09 849 25.07 27.9 82.3 14 -1.8 28.8
12:00 1019 30.09 849 25.07 28.3 83 14 -1.4 29.5
12:05 1019 30.09 849 25.07 29 84.1 14 -1.1 30.1
12:10 1019 30.09 848 25.04 28.9 84.1 14 -0.7 30.8
12:15 1019 30.09 848 25.04 28.5 83.2 14 -1.3 29.7
12:20 1019 30.09 848 25.04 29 84.2 14 -0.8 30.6
12:25 1019 30.09 848 25.04 28.8 83.9 14 -0.7 30.8
12:30 1019 30.09 848 25.04 29.2 84.6 14 -1.1 30.1
12:35 1019 30.09 848 25.04 29.5 85.1 15 0.2 32.3
12:40 1019 30.09 848 25.04 29.3 84.7 14 -0.7 30.7
12:45 1019 30.09 848 25.04 28.9 83.9 14 -1.2 29.9
12:50 1019 30.09 848 25.04 28.8 83.9 14 -0.6 30.9
12:55 1019 30.09 848 25.04 29.1 84.3 14 -1.1 30
13:00 1019 30.09 848 25.04 29.3 84.7 13 -1.3 29.6
13:05 1019 30.09 848 25.04 29.4 84.9 13 -1.4 29.5
13:10 1019 30.09 848 25.04 29.2 84.6 13 -1.7 28.9
13:15 1019 30.09 848 25.04 29.8 85.6 13 -1.6 29.1
13:20 1019 30.09 848 25.04 30.3 86.5 14 -0.3 31.5
13:25 1019 30.09 848 25.04 30.5 87 12 -1.4 29.4
13:30 1019 30.09 848 25.04 30.8 87.5 12 -0.9 30.3
13:35 1018 30.06 848 25.04 30.8 87.4 12 -1.2 29.8
13:40 1018 30.06 848 25.04 30.9 87.5 13 -0.5 31
13:45 1018 30.06 847 25.01 31.1 88 12 -1.2 29.8
13:50 1018 30.06 847 25.01 30.8 87.5 13 -0.1 31.9
13:55 1018 30.06 847 25.01 30.9 87.7 13 -0.6 30.9
14:00 1018 30.06 847 25.01 31.1 87.9 12 -1.5 29.3
14:05 1018 30.06 847 25.01 30.7 87.3 13 -0.7 30.7
14:10 1018 30.06 847 25.01 30.9 87.6 13 -0.8 30.5
14:15 1018 30.06 847 25.01 30.9 87.5 12 -0.9 30.3
14:20 1018 30.06 847 25.01 30.5 86.9 13 -0.9 30.4
14:25 1018 30.06 847 25.01 31.2 88.1 12 -1.1 30
14:30 1018 30.06 847 25.01 31 87.8 13 -0.6 31
14:35 1018 30.06 847 25.01 30.9 87.5 12 -1 30.2
14:40 1018 30.06 847 25.01 31 87.7 12 -1 30.1
14:45 1018 30.06 847 25.01 30.1 86.1 13 -1.2 29.8
14:50 1018 30.06 847 25.01 30.5 86.8 13 -1 30.2
14:55 1018 30.06 847 25.01 30.8 87.5 12 -1.3 29.6
15:00 1018 30.06 847 25.01 30.4 86.8 13 -0.8 30.5
15:05 1018 30.06 847 25.01 30.8 87.4 12 -1.3 29.7
15:10 1018 30.06 847 25.01 30.6 87.1 13 -1 30.2
15:15 1017 30.03 847 25.01 30.5 87 12 -1.3 29.6
15:20 1017 30.03 847 25.01 30.7 87.3 13 -0.8 30.5
15:25 1017 30.03 847 25.01 31 87.8 12 -1.9 28.6
15:30 1017 30.03 847 25.01 30.7 87.2 12 -1.5 29.4
15:35 1017 30.03 847 25.01 31 87.7 13 -0.3 31.4
15:40 1017 30.03 846 24.98 31 87.8 12 -1.1 30
15:45 1017 30.03 846 24.98 31.1 88 12 -1.6 29.2
15:50 1017 30.03 846 24.98 30.7 87.2 12 -1.3 29.6
15:55 1017 30.03 846 24.98 30.4 86.8 13 -1.2 29.8
16:00 1017 30.03 846 24.98 30.2 86.4 12 -1.7 28.9
16:05 1017 30.03 846 24.98 30.4 86.8 13 -1 30.2
16:10 1017 30.03 846 24.98 30.8 87.4 12 -1.3 29.6
16:15 1017 30.03 846 24.98 31.1 88.1 12 -1.4 29.4
16:20 1017 30.03 846 24.98 31.2 88.1 12 -1.6 29.1
16:25 1017 30.03 846 24.98 31 87.7 12 -1.5 29.2
16:30 1017 30.03 846 24.98 31 87.8 12 -1.6 29.1
16:35 1017 30.03 846 24.98 30.5 86.9 12 -1.6 29.1
16:40 1017 30.03 846 24.98 30.9 87.7 12 -1.5 29.3
16:45 1017 30.03 846 24.98 31 87.8 12 -1.4 29.5
16:50 1017 30.03 846 24.98 30.4 86.8 13 -1.1 30
16:55 1017 30.03 846 24.98 30.3 86.5 12 -1.8 28.7
17:00 1017 30.03 846 24.98 30.2 86.3 12 -2.2 28.1
17:05 1017 30.03 846 24.98 30.2 86.3 12 -2.3 27.9
17:10 1017 30.03 846 24.98 30.2 86.4 12 -1.8 28.7
17:15 1017 30.03 846 24.98 30.5 86.9 12 -1.6 29.1
17:20 1017 30.03 846 24.98 30.6 87.1 12 -1.6 29.2
17:25 1017 30.03 846 24.98 30.6 87.1 12 -1.4 29.5
17:30 1017 30.03 846 24.98 30.5 86.9 12 -1.9 28.6
17:35 1017 30.03 846 24.98 30.3 86.6 12 -1.8 28.8
17:40 1017 30.03 846 24.98 30.6 87 11 -2.3 27.9
17:45 1017 30.03 846 24.98 30.3 86.5 13 -1.1 30
17:50 1017 30.03 846 24.98 29.7 85.5 13 -1.5 29.2
17:55 1017 30.03 846 24.98 29.6 85.3 13 -1.8 28.7
18:00 1017 30.03 846 24.98 29.6 85.3 13 -1.5 29.3
18:05 1017 30.03 846 24.98 29.6 85.2 13 -1.1 30
18:10 1017 30.03 846 24.98 29.6 85.3 14 -0.7 30.8
18:15 1017 30.03 846 24.98 29.5 85.2 13 -1.6 29.1
18:20 1017 30.03 846 24.98 29.5 85 13 -1.9 28.6
18:25 1017 30.03 846 24.98 29.4 84.9 16 1.5 34.8
18:30 1017 30.03 846 24.98 29.3 84.7 13 -2 28.4
18:35 1017 30.03 846 24.98 29.1 84.3 19 3.5 38.3
18:40 1017 30.03 846 24.98 28.9 83.9 19 2.9 37.3
18:45 1017 30.03 846 24.98 28.5 83.4 22 4.8 40.7
18:50 1017 30.03 846 24.98 28.1 82.7 21 3.8 38.9
18:55 1017 30.03 846 24.98 27.7 81.9 22 4.6 40.2
19:00 1017 30.03 846 24.98 27.5 81.5 22 4.1 39.4
19:05 1017 30.03 846 24.98 27.2 81 20 2.6 36.7
19:10 1017 30.03 846 24.98 26.9 80.4 21 3.2 37.8
19:15 1017 30.03 847 25.01 26.4 79.5 23 3.7 38.6
19:20 1017 30.03 847 25.01 25.8 78.4 24 4.1 39.4
19:25 1017 30.03 847 25.01 25.3 77.6 24 3.4 38.1
19:30 1017 30.03 847 25.01 25.1 77.2 24 3.1 37.5
19:35 1018 30.06 847 25.01 24.8 76.6 24 3 37.5
19:40 1018 30.06 847 25.01 24.2 75.6 24 2.7 36.8
19:45 1018 30.06 847 25.01 23.6 74.5 26 3 37.5
19:50 1018 30.06 847 25.01 23.1 73.7 26 2.6 36.7
19:55 1018 30.06 847 25.01 22.6 72.7 27 2.9 37.2
20:00 1018 30.06 847 25.01 23.5 74.4 23 1.7 35.1
20:05 1018 30.06 847 25.01 23.9 75 24 2.5 36.6
20:10 1018 30.06 847 25.01 23.9 75 24 2.4 36.3
20:15 1018 30.06 847 25.01 24.2 75.5 25 3.1 37.5
20:20 1018 30.06 847 25.01 23.7 74.7 26 3.2 37.8
20:25 1018 30.06 848 25.04 23.5 74.2 26 3.3 37.9
20:30 1018 30.06 848 25.04 23.4 74.2 24 2.1 35.7
20:35 1019 30.09 848 25.04 23.2 73.7 25 2.3 36.1
20:40 1019 30.09 848 25.04 22.5 72.5 29 3.6 38.6
20:45 1019 30.09 848 25.04 21.2 70.2 32 4 39.2
20:50 1019 30.09 848 25.04 20.3 68.5 31 2.7 36.8
20:55 1019 30.09 848 25.04 20.2 68.4 31 2.7 36.9
21:00 1019 30.09 848 25.04 20.4 68.8 29 2.1 35.8
21:05 1019 30.09 848 25.04 20.5 69 27 1.1 34.1
21:10 1019 30.09 848 25.04 21.2 70.2 25 0.7 33.2
21:15 1019 30.09 848 25.04 21.8 71.2 25 1.2 34.1
21:20 1019 30.09 848 25.04 21.6 70.9 26 1.4 34.5
21:25 1019 30.09 848 25.04 21.1 69.9 29 2.4 36.4
21:30 1019 30.09 848 25.04 20.5 68.9 28 1.5 34.7
21:35 1019 30.09 848 25.04 20.3 68.6 30 2.3 36.2
21:40 1019 30.09 848 25.04 20.5 68.8 29 2.2 35.9
21:45 1019 30.09 848 25.04 20.6 69.1 28 1.8 35.3
21:50 1019 30.09 848 25.04 20.3 68.6 30 2.2 36
21:55 1019 30.09 848 25.04 20 68.1 30 1.9 35.4
22:00 1019 30.09 848 25.04 19.6 67.3 30 1.8 35.2
22:05 1019 30.09 848 25.04 19.5 67.1 30 1.6 34.9
22:10 1019 30.09 848 25.04 19.8 67.7 30 1.7 35
22:15 1019 30.09 848 25.04 19.8 67.6 29 1.4 34.5
22:20 1019 30.09 849 25.07 19.9 67.9 28 1.2 34.2
22:25 1019 30.09 849 25.07 20.4 68.8 28 1.3 34.4
22:30 1019 30.09 849 25.07 20.5 68.9 28 1.6 34.8
22:35 1019 30.09 849 25.07 19.9 67.8 29 1.4 34.6
22:40 1019 30.09 849 25.07 19.5 67.1 30 1.8 35.2
22:45 1020 30.12 849 25.07 19.3 66.7 30 1.5 34.7
22:50 1020 30.12 849 25.07 19.3 66.7 31 1.9 35.5
22:55 1020 30.12 849 25.07 19 66.3 29 0.9 33.6
23:00 1020 30.12 849 25.07 19.3 66.8 31 2 35.6
23:05 1020 30.12 849 25.07 19.4 66.8 32 2.3 36.2
23:10 1020 30.12 849 25.07 19 66.2 31 1.7 35.1
23:15 1020 30.12 849 25.07 18.8 65.8 30 1.1 34
23:20 1020 30.12 849 25.07 18.8 65.9 30 1.1 33.9
23:25 1020 30.12 849 25.07 19 66.2 30 1 33.8
23:30 1020 30.12 849 25.07 19 66.2 31 1.7 35.1
23:35 1020 30.12 849 25.07 18.7 65.6 32 1.6 34.9
23:40 1020 30.12 849 25.07 18.1 64.6 33 1.6 34.9
23:45 1020 30.12 849 25.07 17.7 63.8 33 1.5 34.6
23:50 1020 30.12 849 25.07 17.6 63.6 34 1.5 34.6
23:55 1020 30.12 849 25.07 17.5 63.5 33 1.4 34.4
24:00 1020 30.12 850 25.1 17.8 64 31 0.7 33.3